x

Niagara Coast Guard Station, Ny (ygnn6) Weather Station

3:50pm - Thu 23rd Feb 2017 All times are CST. -6 hours from GMT.

  • Wind
    8mph, 13mph gusts
  • Air Temp 47°f
  • Sea Pressure 1007.8mb
  • Niagara Coast Guard Station, Ny
  • Niagara Coast Guard Station, Ny

More Historic Weather Station data

Upgrade to MSW Pro to gain access to the past 30 days of data for over 8000 Wavebouys and Weather Stations around the globe.

Join Pro

Comparision Forecast

View Surf forecast
   
Thu 02/23 3:50pm 8 13 mph 1007.8mb 47f
3:40pm 11 17 mph 1007.8mb 50f
3:30pm 13 17 mph 1007.1mb 53f
3:20pm 14 21 mph 1007.1mb 56f
3:10pm 15 18 mph 1006.8mb 56f
3:00pm 10 18 mph 1006.4mb 62f
2:50pm 10 17 mph 1006.1mb 62f
2:40pm 14 16 mph 1006.1mb 60f
2:30pm 10 15 mph 1005.8mb 62f
2:20pm 9 14 mph 1005.8mb 61f
2:10pm 10 17 mph 1005.4mb 63f
2:00pm 14 17 mph 1005.4mb 63f
1:50pm 9 17 mph 1005.4mb 62f
1:40pm 13 20 mph 1005.1mb 63f
1:30pm 10 18 mph 1005.1mb 63f
1:20pm 11 18 mph 1004.7mb 63f
1:10pm 10 17 mph 1004.7mb 62f
1:00pm 13 21 mph 1004.7mb 62f
12:50pm 9 21 mph 1004.7mb 62f
12:40pm 15 23 mph 1004.7mb 62f
12:30pm 13 23 mph 1004.4mb 62f
12:20pm 16 24 mph 1004.4mb 62f
12:10pm 14 23 mph 1004.4mb 61f
12:00pm 18 23 mph 1004.4mb 61f
11:50am 17 25 mph 1004.4mb 60f
11:40am 14 29 mph 1004.4mb 60f
11:30am 14 25 mph 1004.4mb 61f
11:20am 17 24 mph 1004.7mb 60f
11:10am 16 25 mph 1004.1mb 59f
11:00am 13 29 mph 1004.4mb 59f
10:50am 15 28 mph 1004.1mb 59f
10:40am 17 31 mph 1004.4mb 58f
10:30am 17 23 mph 1003.7mb 58f
10:20am 18 26 mph 1004.1mb 58f
10:10am 14 23 mph 1004.1mb 58f
10:00am 14 22 mph 1004.4mb 57f
9:50am 13 23 mph 1004.1mb 57f
9:40am 13 26 mph 1004.1mb 57f
9:30am 13 29 mph 1004.1mb 58f
9:20am 17 30 mph 1004.1mb 58f
9:10am 21 30 mph 1004.1mb 58f
9:00am 14 22 mph 1004.1mb 58f
8:50am 11 18 mph 1004.1mb 58f
8:40am 13 18 mph 1003.7mb 58f
8:30am 13 20 mph 1003.7mb 58f
8:20am 13 22 mph 1003.7mb 58f
8:10am 13 20 mph 1004.1mb 58f
8:00am 14 22 mph 1004.4mb 58f
7:50am 13 20 mph 1004.1mb 58f
7:40am 10 21 mph 1004.1mb 57f
7:30am 14 21 mph 1004.1mb 57f
7:20am 15 22 mph 1004.1mb 57f
7:10am 14 25 mph 1004.1mb 57f
7:00am 15 24 mph 1004.1mb 57f
6:50am 14 23 mph 1004.1mb 57f
6:40am 16 24 mph 1003.7mb 57f
6:30am 14 21 mph 1003.7mb 57f
6:20am 14 22 mph 1003.7mb 57f
6:10am 14 18 mph 1003.7mb 57f
6:00am 13 17 mph 1003.7mb 56f
5:50am 14 26 mph 1004.1mb 56f
5:40am 14 22 mph 1004.1mb 56f
5:30am 15 20 mph 1004.1mb 56f
5:20am 11 16 mph 1004.1mb 56f
5:10am 11 16 mph 1004.1mb 56f
5:00am 11 16 mph 1004.1mb 56f
4:50am 9 14 mph 1004.1mb 56f
4:40am 13 16 mph 1004.1mb 56f
4:30am 11 15 mph 1004.1mb 56f
4:20am 10 15 mph 1004.1mb 56f
4:10am 10 17 mph 1004.4mb 56f
4:00am 10 18 mph 1004.4mb 56f
Wed 02/22 3:50pm 1 3 mph 1008.1mb 42f
2:50pm 3 11 mph 1009.1mb 37f
1:50pm  -  2 mph 1009.1mb 47f
12:50pm 2 3 mph 1010.2mb 39f
11:50am 6 8 mph 1010.5mb 38f
10:50am 2 5 mph 1010.8mb 42f
9:50am  -  8 mph 1011.2mb 39f
8:50am 3 5 mph 1011.9mb 42f
7:50am 1 3 mph 1012.5mb 40f
6:50am 1 2 mph 1012.5mb 37f
4:50am 2
mph
1013.2mb 40f
4:40am  -  mph 1012.9mb 39f
4:30am  -  1 mph 1012.9mb 39f
4:20am  -  2 mph 1012.9mb 40f
4:10am  -  1 mph 1012.5mb 40f
4:00am  -  2 mph 1012.5mb 39f
3:50am  -  5 mph 1012.9mb 38f
3:40am 3 7 mph 1012.5mb 38f
3:30am 5 7 mph 1012.5mb 37f
3:20am 3 5 mph 1012.9mb 38f
3:10am 3 7 mph 1012.9mb 38f
3:00am 2 7 mph 1012.5mb 39f
2:50am 3 5 mph 1012.9mb 38f
2:40am 1 2 mph 1012.9mb 37f
2:30am  -  mph 1012.9mb 38f
2:20am  -  2 mph 1013.2mb 38f
2:10am 1 2 mph 1013.2mb 38f
2:00am 2
mph
1013.2mb 38f
1:50am 1 2 mph 1013.2mb 38f
1:40am 1
mph
1013.2mb 39f
1:30am 1 2 mph 1013.2mb 40f
1:20am  -  5 mph 1013.2mb 40f
1:10am 5 6 mph 1013.5mb 40f
1:00am 2 3 mph 1013.2mb 39f
12:50am 2 3 mph 1013.5mb 38f
12:40am 3
mph
1013.9mb 38f
12:30am 2
mph
1013.9mb 38f
12:20am 2
mph
1013.5mb 37f
12:10am 2
mph
1013.5mb 37f
12:00am  -  3 mph 1013.9mb 38f
Tue 02/21 11:50pm 1 2 mph 1013.9mb 38f
11:40pm  -  5 mph 1013.9mb 38f
11:30pm  -  3 mph 1013.9mb 38f
11:20pm 3 5 mph 1013.9mb 38f
11:10pm 5
mph
1013.9mb 38f
11:00pm 3 5 mph 1013.9mb 38f
10:50pm 3
mph
1013.9mb 37f
10:40pm 1 3 mph 1014.2mb 37f
10:30pm 2 5 mph 1013.9mb 38f
10:20pm 3 5 mph 1014.2mb 38f
10:10pm 2 3 mph 1014.2mb 38f
10:00pm 1 3 mph 1014.2mb 37f
9:50pm 2 3 mph 1014.2mb 38f
9:40pm 3 5 mph 1014.2mb 38f
9:30pm 3 6 mph 1014.2mb 38f
9:20pm 5
mph
1013.9mb 37f
9:10pm  -  2 mph 1014.2mb 37f
9:00pm 1 5 mph 1014.6mb 37f
8:50pm 3
mph
1014.6mb 37f
8:40pm 2 3 mph 1014.2mb 37f
8:30pm  -  2 mph 1014.2mb 38f
8:20pm  -  1 mph 1014.2mb 37f
8:10pm 1
mph
1014.2mb 37f
8:00pm  -  1 mph 1013.9mb 37f
7:50pm 2
mph
1013.9mb 37f
7:40pm  -  2 mph 1013.9mb 37f
7:30pm  -  3 mph 1013.9mb 37f
7:20pm 1 5 mph 1013.9mb 37f
7:10pm 5 6 mph 1013.9mb 38f
7:00pm 2 5 mph 1013.9mb 38f
6:50pm 2 5 mph 1013.5mb 37f
6:40pm 5
mph
1013.5mb 37f
6:30pm 3 7 mph 1013.9mb 38f
6:20pm 2 5 mph 1013.9mb 38f
6:10pm 3
mph
1013.5mb 38f
6:00pm 2
mph
1013.9mb 38f
5:50pm 2
mph
1013.9mb 38f
5:40pm 1 5 mph 1013.9mb 39f
5:30pm 5 7 mph 1013.9mb 38f
5:20pm  -  2 mph 1013.9mb 38f
5:10pm 1 2 mph 1013.9mb 38f
5:00pm 2 3 mph 1013.9mb 38f
4:50pm  -  3 mph 1013.9mb 38f
4:40pm 3 5 mph 1013.9mb 39f
4:30pm 3 6 mph 1013.9mb 39f
4:20pm 1 5 mph 1013.2mb 41f
4:10pm 5 7 mph 1013.9mb 40f
4:00pm 7 8 mph 1013.2mb 40f
3:50pm 8 9 mph 1013.2mb 38f
3:40pm 5 7 mph 1013.2mb 39f
3:30pm 6
mph
1013.5mb 37f
3:20pm 2 5 mph 1013.5mb 37f
3:10pm 3 5 mph 1013.5mb 38f
3:00pm  -  2 mph 1013.5mb 37f
2:50pm  -  2 mph 1013.5mb 37f
2:40pm 3 9 mph 1013.9mb 36f
2:30pm 8 10 mph 1014.2mb 36f
2:20pm 10 11 mph 1013.9mb 36f
2:10pm 8 10 mph 1013.9mb 36f
2:00pm 5
mph
1013.5mb 37f
1:50pm 3 5 mph 1012.9mb 37f
1:40pm 2 5 mph 1012.9mb 39f
1:30pm 2 3 mph 1013.2mb 39f
1:20pm 3 5 mph 1013.5mb 38f
1:10pm 2 3 mph 1013.9mb 39f
1:00pm 1 5 mph 1013.5mb 39f
12:50pm 1 2 mph 1013.9mb 40f
12:40pm  -  3 mph 1014.2mb 38f
12:30pm 3 5 mph 1014.2mb 38f
12:20pm 1 3 mph 1014.9mb 36f
12:10pm 3 6 mph 1014.9mb 35f
12:00pm 5
mph
1014.6mb 36f
11:50am 3 6 mph 1014.6mb 36f
11:40am 2 5 mph 1014.6mb 37f
11:30am  -  7 mph 1014.6mb 36f
11:20am 2 6 mph 1014.9mb 36f
11:10am 5 6 mph 1015.2mb 37f
11:00am 3 5 mph 1015.2mb 37f
10:50am 3 5 mph 1015.2mb 37f
10:40am  -  3 mph 1015.6mb 37f
10:30am 2
mph
1015.6mb 37f
10:20am  -  2 mph 1015.6mb 38f
10:10am  -  2 mph 1015.6mb 38f
10:00am 1 3 mph 1015.9mb 35f
9:50am 3
mph
1016.6mb 35f
9:40am 3
mph
1016.6mb 35f
9:30am 3
mph
1016.6mb 35f
9:20am 2 3 mph 1016.6mb 35f
9:10am 2 3 mph 1016.6mb 35f
9:00am 3
mph
1016.6mb 35f
8:50am 3
mph
1016.9mb 35f
8:40am 2 5 mph 1017.3mb 35f
8:30am 2 3 mph 1017.3mb 35f
8:20am  -  3 mph 1016.9mb 35f
8:10am 2 3 mph 1017.3mb 34f
8:00am 3
mph
1017.3mb 34f
7:50am 1 2 mph 1017.3mb 34f
7:40am 2 3 mph 1017.3mb 33f
7:30am 2
mph
1017.6mb 33f
7:20am  -  3 mph 1017.6mb 33f
7:10am 1 3 mph 1017.3mb 32f
7:00am 1 3 mph 1017.3mb 32f
6:50am 2
mph
1017.6mb 31f
6:40am  -  2 mph 1017.9mb 31f
6:30am  -  1 mph 1018.3mb 31f
6:20am  -  1 mph 1017.9mb 31f
6:10am  -  1 mph 1018.3mb 31f
6:00am  -  1 mph 1018.3mb 31f
5:50am  -  1 mph 1018.3mb 32f
5:40am  -  2 mph 1018.6mb 31f
5:30am  -  6 mph 1018.6mb 31f
5:20am 3 5 mph 1018.3mb 32f
5:10am  -  2 mph 1019mb 31f
5:00am  -  3 mph 1019mb 31f
4:50am 1 2 mph 1019mb 31f
4:40am 1 8 mph 1019.3mb 31f
4:30am 5 9 mph 1018.6mb 31f
4:20am 1 5 mph 1019mb 31f
4:10am 1 2 mph 1019.6mb 31f
4:00am 1 2 mph 1020mb 31f
3:50am  -  2 mph 1020mb 31f
3:40am  -  5 mph 1020mb 31f
3:30am 1 5 mph 1020mb 31f
3:20am 2 6 mph 1020mb 31f
3:10am 2 5 mph 1020mb 31f
3:00am 2 6 mph 1020.7mb 31f
2:50am 2 6 mph 1020.7mb 31f
2:40am 2 6 mph 1020.7mb 31f
2:30am 2 5 mph 1021mb 31f
2:20am 1 6 mph 1020.7mb 31f
2:10am 2 6 mph 1021mb 31f
2:00am 2 3 mph 1021.3mb 31f
1:50am 1 3 mph 1022mb 31f
1:40am 2 5 mph 1022mb 31f
1:30am 2 7 mph 1022mb 31f
1:20am 1 5 mph 1022mb 31f
1:10am 2 6 mph 1022mb 31f
1:00am 2 7 mph 1022mb 31f
12:50am 2 5 mph 1022.4mb 31f
12:40am 2 7 mph 1022.4mb 31f
12:30am 3 6 mph 1022.7mb 32f
12:20am 2 7 mph 1022.7mb 32f
12:10am 3 8 mph 1023mb 32f
12:00am 2 10 mph 1023.4mb 32f
Mon 02/20 11:50pm 3 8 mph 1023.4mb 32f
11:40pm 3 10 mph 1023.4mb 32f
11:30pm 3 10 mph 1023.7mb 32f
11:20pm 3 11 mph 1023.7mb 33f
11:10pm 6 13 mph 1023.7mb 33f
11:00pm 7 13 mph 1023.4mb 33f
10:50pm 6 15 mph 1023.7mb 32f
10:40pm 6 13 mph 1023.7mb 32f
10:30pm 5 9 mph 1024.4mb 33f
10:20pm 3 10 mph 1024.7mb 33f
10:10pm 5 13 mph 1025.1mb 33f
10:00pm 6 15 mph 1025.1mb 33f
9:50pm 6 16 mph 1025.1mb 33f
9:40pm 6 17 mph 1025.1mb 33f
9:30pm 5 17 mph 1025.4mb 33f
9:20pm 6 17 mph 1025.4mb 33f
9:10pm 6 14 mph 1025.4mb 33f
9:00pm 5 20 mph 1025.7mb 33f
8:50pm 5 11 mph 1026.1mb 33f
8:40pm 3 11 mph 1026.4mb 33f
8:30pm 3 9 mph 1026.8mb 33f
8:20pm 3 8 mph 1026.8mb 32f
8:10pm 3 9 mph 1026.8mb 32f
8:00pm 5 10 mph 1026.8mb 32f
7:50pm 2 8 mph 1026.8mb 32f
7:40pm 5 10 mph 1026.8mb 32f
7:30pm 3 9 mph 1027.1mb 32f
7:20pm 2 8 mph 1027.1mb 32f
7:10pm 3 8 mph 1027.1mb 32f
7:00pm 5 7 mph 1027.1mb 32f
6:50pm 3 11 mph 1027.1mb 33f
6:40pm 5 11 mph 1027.1mb 33f
6:30pm 5 14 mph 1027.4mb 33f
6:20pm 6 13 mph 1027.1mb 33f
6:10pm 6 13 mph 1027.4mb 33f
6:00pm 7 13 mph 1027.4mb 34f
5:50pm 7 13 mph 1027.1mb 34f
5:40pm 7 11 mph 1027.1mb 34f
5:30pm 8 11 mph 1027.1mb 34f
5:20pm 8 10 mph 1027.1mb 34f
5:10pm 7 11 mph 1027.1mb 34f
5:00pm 7 9 mph 1027.4mb 34f
4:50pm 6 11 mph 1027.1mb 34f
4:40pm 9 14 mph 1027.4mb 34f
4:30pm 7 16 mph 1027.4mb 35f
4:20pm 9 14 mph 1027.4mb 35f
4:10pm 10 15 mph 1027.4mb 35f
4:00pm 9 17 mph 1027.4mb 36f
3:50pm 9 16 mph 1027.4mb 35f
3:40pm 9 15 mph 1027.4mb 35f
3:30pm 9 14 mph 1027.8mb 36f
3:20pm 8 16 mph 1027.8mb 36f
3:10pm 8 13 mph 1027.8mb 36f
3:00pm 7 14 mph 1027.8mb 36f
2:50pm 6 14 mph 1028.1mb 37f
2:40pm 7 13 mph 1027.8mb 37f
2:30pm 7 14 mph 1027.8mb 37f
2:20pm 8 14 mph 1027.8mb 36f
2:10pm 7 13 mph 1027.8mb 37f
2:00pm 7 13 mph 1027.8mb 38f
1:50pm 6 13 mph 1027.8mb 38f
1:40pm 7 13 mph 1027.4mb 37f
1:30pm 5 13 mph 1027.4mb 37f
1:20pm 7 13 mph 1027.4mb 36f
1:10pm 6 11 mph 1027.8mb 36f
1:00pm 7 11 mph 1028.1mb 38f
12:50pm 3 9 mph 1027.8mb 38f
12:40pm 6 13 mph 1027.8mb 38f
12:30pm 5 10 mph 1027.8mb 38f
12:20pm 7 11 mph 1027.4mb 37f
12:10pm 7 11 mph 1027.4mb 37f
12:00pm 6 13 mph 1027.4mb 37f
11:50am 6 11 mph 1027.4mb 38f
11:40am 6 11 mph 1027.8mb 37f
11:30am 6 11 mph 1027.8mb 37f
11:20am 6 11 mph 1028.1mb 37f
11:10am 6 11 mph 1028.1mb 37f
11:00am 5 10 mph 1028.4mb 37f
10:50am 6 9 mph 1028.4mb 37f
10:40am 6 9 mph 1028.4mb 37f
10:30am 6 11 mph 1028.4mb 37f
10:20am 6 11 mph 1028.4mb 37f
10:10am 7 13 mph 1028.8mb 37f
10:00am 7 10 mph 1028.8mb 37f
9:50am 6 11 mph 1028.8mb 37f
9:40am 7 13 mph 1028.8mb 36f
9:30am 9 14 mph 1028.1mb 36f
9:20am 8 14 mph 1028.1mb 36f
9:10am 9 15 mph 1028.1mb 36f
9:00am 8 15 mph 1028.1mb 37f
8:50am 8 14 mph 1028.1mb 36f
8:40am 9 13 mph 1027.8mb 36f
8:30am 7 13 mph 1027.8mb 37f
8:20am 6 11 mph 1027.8mb 36f
8:10am 6 10 mph 1028.1mb 37f
8:00am 2 7 mph 1028.1mb 37f
7:50am 2 7 mph 1027.8mb 36f
7:40am 5 9 mph 1027.4mb 36f
7:30am 5 9 mph 1027.4mb 36f
7:20am 6 9 mph 1027.4mb 36f
7:10am 3 9 mph 1027.1mb 36f
7:00am 7 11 mph 1027.1mb 36f
6:50am 6 10 mph 1026.4mb 36f
6:40am 6 9 mph 1026.4mb 35f
6:30am 3 7 mph 1026.4mb 35f
6:20am 3 7 mph 1026.1mb 34f
6:10am 2 5 mph 1026.1mb 34f
6:00am 1 3 mph 1025.7mb 34f
5:50am 1 6 mph 1025.7mb 34f
5:40am  -  6 mph 1025.7mb 35f
5:30am 2 8 mph 1025.4mb 35f
5:20am 3 6 mph 1025.4mb 35f
5:10am 1 7 mph 1025.4mb 35f
5:00am 1 6 mph 1025.1mb 35f
4:50am 3 8 mph 1025.1mb 35f
4:40am 3 8 mph 1024.7mb 35f
4:30am 1 7 mph 1024.7mb 35f
4:20am  -  7 mph 1024.7mb 35f
4:10am 3 7 mph 1024.4mb 35f
4:00am 2 5 mph 1024.4mb 35f
3:50am 1 5 mph 1024mb 36f
3:40am 5 7 mph 1023.7mb 36f
3:30am 2 3 mph 1023.7mb 37f
3:20am 2 6 mph 1023.4mb 36f
3:10am 2 5 mph 1023.4mb 36f
3:00am 1 3 mph 1023mb 35f
2:50am 2 3 mph 1022.7mb 35f
2:40am 1 2 mph 1022.7mb 34f
2:30am  -  2 mph 1022.7mb 34f
2:20am  -  3 mph 1022.4mb 35f
2:10am 3 6 mph 1022.4mb 36f
2:00am 3 6 mph 1022.4mb 36f
1:50am 3 6 mph 1022.4mb 36f
1:40am 2 5 mph 1022mb 36f
1:30am  -  5 mph 1022mb 34f
1:20am  -  5 mph 1022mb 35f
1:10am  -  3 mph 1022mb 35f
1:00am 1 3 mph 1021.7mb 34f
12:50am 3
mph
1021.7mb 34f
12:40am  -  3 mph 1021.7mb 35f
12:30am 1 3 mph 1021.7mb 35f
12:20am  -  6 mph 1021.3mb 34f
12:10am 5
mph
1021mb 34f
12:00am 1 5 mph 1021.3mb 35f
Sun 02/19 11:50pm 1 3 mph 1021.3mb 36f
11:40pm  -  3 mph 1021mb 36f
11:30pm 1 3 mph 1021mb 36f
11:20pm 1 2 mph 1020.7mb 36f
11:10pm  -  5 mph 1020.7mb 36f
11:00pm 1 5 mph 1020.7mb 35f
10:50pm 3 6 mph 1020.7mb 36f
10:40pm 6 8 mph 1020.3mb 37f